Pagrindinis puslapis
METAR-TAF:

METAR-TAF

Oro uostai :

Trinidadas, Bolivija

platuma: 14-49S, ilguma: 064-55W, Aukštis: 155 m

Dabartinis oras

Ataskaita buvo paskelbta 57 minutes, ne 14:00 UTC
Vėjas 8 kt iš Pietryčių
Temperatūra 22°C
Drėgmė 69%
Slėgis 1017 hPa
Matomumas 10 km arba daugiau

METAR: SLTR 251400Z 14008KT 9999 NSC 22/16 Q1017

Laikas: 10:57 (14:57 UTC)

Prognozė

Ataskaita buvo paskelbta 4 valandos ir 57 minutes, ne 10:00 UTC
Prognozė galioja nuo 25 metu 12 UTC su 26 metu 12 UTC
Vėjas 10 kt iš Pietų/Pietryčių
Matomumas 10 km arba daugiau
Išsisklaidę debesys ne aukštis 2000 ft
Tapsmas
nuo 25 metu 23 UTC su 26 metu 01 UTC
Vėjas kt iš Šiaurės

TAF: SLTR 251000Z 2512/2612 15010KT 9999 SCT020 TX32/2519Z TN18/2611Z BECMG 2523/2601 00000KT

Orai ataskaitas ir orų prognozės (METAR, TAF).

turimą stotys yra geltonos ir raudonos taškus žemėlapyje.

Perkelti pele per norėdami pamatyti stoties vardą.

Tada spustelėkite, norėdami matyti oro stebėjimo ir prognozės.

Norėdami pakeisti žemėlapį: spustelėkite ant žalios mygtukų su juodo kryžiaus žemyn,; žalią mygtuką su brūkšneliu, jei norite nutolinti; arba žalių rodyklių gretimoms žemėlapius.


METAR-TAF: